createdAt,value
2018-03-22T00:01:32.521Z,98519.67
2018-03-22T00:03:59.964Z,98521.14
2018-03-22T00:06:27.400Z,98517.93
2018-03-22T00:08:55.059Z,98514.81
2018-03-22T00:11:22.501Z,98515.95
2018-03-22T00:13:50.087Z,98510.55
2018-03-22T00:16:17.572Z,98510.64
2018-03-22T00:18:45.040Z,98512.02
2018-03-22T00:21:12.518Z,98515.88
2018-03-22T00:23:39.986Z,98510.30
2018-03-22T00:26:07.654Z,98503.00
2018-03-22T00:28:35.157Z,98500.31
2018-03-22T00:31:03.223Z,98497.09
2018-03-22T00:33:30.695Z,98502.31
2018-03-22T00:35:58.211Z,98495.07
2018-03-22T00:38:25.920Z,98493.64
2018-03-22T00:40:53.422Z,98491.95
2018-03-22T00:43:20.871Z,98487.09
2018-03-22T00:45:48.315Z,98486.00
2018-03-22T00:48:16.629Z,98478.26
2018-03-22T00:50:44.136Z,98474.44
2018-03-22T00:53:11.580Z,98468.14
2018-03-22T00:55:39.033Z,98460.70
2018-03-22T00:58:06.470Z,98458.77
2018-03-22T01:00:34.054Z,98456.69
2018-03-22T01:03:01.635Z,98453.00
2018-03-22T01:05:33.090Z,98448.42
2018-03-22T01:08:00.607Z,98445.68
2018-03-22T01:10:28.060Z,98441.25
2018-03-22T01:12:55.521Z,98444.61
2018-03-22T01:15:22.975Z,98439.00
2018-03-22T01:17:50.419Z,98436.26
2018-03-22T01:20:17.909Z,98429.72
2018-03-22T01:22:45.811Z,98427.99
2018-03-22T01:25:13.499Z,98420.34
2018-03-22T01:27:40.932Z,98425.83
2018-03-22T01:30:21.322Z,98421.34
2018-03-22T01:32:49.443Z,98421.59
2018-03-22T01:35:18.002Z,98418.55
2018-03-22T01:37:48.190Z,98421.81
2018-03-22T01:40:16.820Z,98420.44
2018-03-22T01:42:44.439Z,98422.81
2018-03-22T01:45:12.899Z,98418.08
2018-03-22T01:47:40.379Z,98416.28
2018-03-22T01:50:07.806Z,98414.22
2018-03-22T01:52:35.248Z,98415.55
2018-03-22T01:55:02.674Z,98407.76
2018-03-22T01:57:30.231Z,98411.38
2018-03-22T01:59:57.798Z,98406.78
2018-03-22T02:02:25.377Z,98405.84
2018-03-22T02:04:53.031Z,98399.66
2018-03-22T02:07:20.627Z,98404.42
2018-03-22T02:09:48.202Z,98391.91
2018-03-22T02:12:16.266Z,98392.44
2018-03-22T02:14:43.734Z,98391.47
2018-03-22T02:17:11.190Z,98391.11
2018-03-22T02:19:38.651Z,98383.58
2018-03-22T02:22:06.073Z,98385.83
2018-03-22T02:24:33.528Z,98382.38
2018-03-22T02:27:01.100Z,98378.24
2018-03-22T02:29:28.531Z,98375.53
2018-03-22T02:31:56.000Z,98372.41
2018-03-22T02:34:23.492Z,98374.75
2018-03-22T02:36:50.935Z,98372.55
2018-03-22T02:39:18.432Z,98372.74
2018-03-22T02:41:45.895Z,98380.31
2018-03-22T02:44:13.334Z,98376.05
2018-03-22T02:46:40.797Z,98375.16
2018-03-22T02:49:08.257Z,98368.88
2018-03-22T02:51:35.721Z,98362.47
2018-03-22T02:54:03.178Z,98359.91
2018-03-22T02:56:31.384Z,98359.22
2018-03-22T02:58:58.971Z,98356.04
2018-03-22T03:01:26.528Z,98352.25
2018-03-22T03:03:54.129Z,98347.70
2018-03-22T03:06:21.824Z,98345.87
2018-03-22T03:08:49.341Z,98336.81
2018-03-22T03:11:16.837Z,98339.80
2018-03-22T03:13:44.307Z,98328.52
2018-03-22T03:16:12.351Z,98327.19
2018-03-22T03:18:39.837Z,98326.27
2018-03-22T03:21:08.408Z,98316.20
2018-03-22T03:23:35.945Z,98303.09
2018-03-22T03:26:03.473Z,98306.88
2018-03-22T03:28:31.526Z,98309.83
2018-03-22T03:30:59.040Z,98310.84
2018-03-22T03:33:26.496Z,98309.11
2018-03-22T03:35:54.922Z,98306.78
2018-03-22T03:38:22.408Z,98305.66
2018-03-22T03:40:49.965Z,98304.77
2018-03-22T03:43:17.527Z,98302.61
2018-03-22T03:45:45.657Z,98302.82
2018-03-22T03:48:13.207Z,98296.92
2018-03-22T03:50:40.637Z,98289.91
2018-03-22T03:53:08.084Z,98285.97
2018-03-22T03:55:36.451Z,98281.59
2018-03-22T03:58:03.908Z,98285.43
2018-03-22T04:00:31.325Z,98282.92
2018-03-22T04:02:58.775Z,98283.65
2018-03-22T04:05:26.210Z,98277.84
2018-03-22T04:07:53.660Z,98280.08
2018-03-22T04:10:21.206Z,98277.33
2018-03-22T04:12:48.727Z,98269.61
2018-03-22T04:15:16.269Z,98268.92
2018-03-22T04:17:44.253Z,98271.95
2018-03-22T04:20:11.710Z,98268.61
2018-03-22T04:22:39.172Z,98270.13
2018-03-22T04:25:07.185Z,98272.55
2018-03-22T04:27:34.919Z,98271.03
2018-03-22T04:30:02.380Z,98271.43
2018-03-22T04:32:29.800Z,98273.77
2018-03-22T04:34:57.324Z,98268.89
2018-03-22T04:37:24.770Z,98271.33
2018-03-22T04:39:52.218Z,98264.83
2018-03-22T04:42:19.641Z,98257.28
2018-03-22T04:44:47.146Z,98256.19
2018-03-22T04:47:15.115Z,98252.94
2018-03-22T04:49:42.555Z,98252.12
2018-03-22T04:52:10.262Z,98247.42
2018-03-22T04:54:37.890Z,98237.16
2018-03-22T04:57:05.366Z,98234.88
2018-03-22T04:59:32.933Z,98232.84
2018-03-22T05:02:00.554Z,98224.89
2018-03-22T05:04:27.984Z,98227.00
2018-03-22T05:06:55.459Z,98219.73
2018-03-22T05:09:22.869Z,98218.02
2018-03-22T05:11:50.374Z,98214.15
2018-03-22T05:14:17.816Z,98219.73
2018-03-22T05:16:45.273Z,98222.79
2018-03-22T05:19:12.735Z,98220.45
2018-03-22T05:21:40.246Z,98212.33
2018-03-22T05:24:07.709Z,98204.98
2018-03-22T05:26:35.160Z,98200.30
2018-03-22T05:29:02.994Z,98194.84
2018-03-22T05:31:30.413Z,98188.86
2018-03-22T05:33:57.861Z,98196.17
2018-03-22T05:36:25.283Z,98186.45
2018-03-22T05:38:52.720Z,98192.98
2018-03-22T05:41:20.145Z,98189.28
2018-03-22T05:43:47.621Z,98190.34
2018-03-22T05:46:15.040Z,98197.51
2018-03-22T05:48:42.557Z,98198.16
2018-03-22T05:51:10.042Z,98192.77
2018-03-22T05:53:37.551Z,98190.92
2018-03-22T05:56:05.005Z,98179.80
2018-03-22T05:58:32.472Z,98182.84
2018-03-22T06:00:59.957Z,98175.80
2018-03-22T06:03:27.424Z,98179.77
2018-03-22T06:05:54.889Z,98177.58
2018-03-22T06:08:22.315Z,98181.78
2018-03-22T06:10:49.779Z,98176.12
2018-03-22T06:13:17.233Z,98168.67
2018-03-22T06:15:44.690Z,98170.34
2018-03-22T06:18:12.158Z,98172.50
2018-03-22T06:20:39.656Z,98169.80
2018-03-22T06:23:07.769Z,98170.80
2018-03-22T06:25:35.267Z,98171.02
2018-03-22T06:28:02.713Z,98171.70
2018-03-22T06:30:30.169Z,98163.70
2018-03-22T06:32:57.656Z,98156.52
2018-03-22T06:35:25.092Z,98149.16
2018-03-22T06:37:52.564Z,98145.60
2018-03-22T06:40:20.137Z,98147.28
2018-03-22T06:42:47.742Z,98149.83
2018-03-22T06:45:15.446Z,98148.38
2018-03-22T06:47:42.933Z,98152.36
2018-03-22T06:50:10.522Z,98161.98
2018-03-22T06:52:38.160Z,98149.01
2018-03-22T06:55:05.696Z,98134.92
2018-03-22T06:57:33.153Z,98137.61
2018-03-22T07:00:00.582Z,98137.14
2018-03-22T07:02:28.112Z,98132.43
2018-03-22T07:04:55.557Z,98135.66
2018-03-22T07:07:23.013Z,98129.31
2018-03-22T07:09:50.455Z,98131.63
2018-03-22T07:12:17.892Z,98130.77
2018-03-22T07:14:45.385Z,98126.26
2018-03-22T07:17:12.829Z,98127.91
2018-03-22T07:19:40.344Z,98125.56
2018-03-22T07:22:07.928Z,98130.06
2018-03-22T07:24:35.462Z,98122.57
2018-03-22T07:27:02.907Z,98124.41
2018-03-22T07:29:30.337Z,98132.42
2018-03-22T07:31:57.824Z,98128.23
2018-03-22T07:34:25.261Z,98132.67
2018-03-22T07:36:53.046Z,98127.11
2018-03-22T07:39:20.469Z,98122.66
2018-03-22T07:41:48.019Z,98116.88
2018-03-22T07:47:16.691Z,98116.71
2018-03-22T07:49:44.134Z,98113.18
2018-03-22T07:52:11.582Z,98111.23
2018-03-22T07:54:39.064Z,98098.03
2018-03-22T07:57:06.501Z,98106.23
2018-03-22T07:59:33.982Z,98104.27
2018-03-22T08:02:01.468Z,98101.53
2018-03-22T08:04:28.932Z,98099.88
2018-03-22T08:06:56.393Z,98102.36
2018-03-22T08:09:23.858Z,98100.49
2018-03-22T08:11:51.336Z,98099.24
2018-03-22T08:14:18.809Z,98103.05
2018-03-22T08:16:46.258Z,98084.75
2018-03-22T08:19:13.731Z,98086.30
2018-03-22T08:21:41.200Z,98084.71
2018-03-22T08:24:08.633Z,98075.33
2018-03-22T08:26:36.083Z,98079.91
2018-03-22T08:29:03.540Z,98086.84
2018-03-22T08:31:31.042Z,98077.38
2018-03-22T08:33:58.441Z,98077.74
2018-03-22T08:36:25.908Z,98074.66
2018-03-22T08:38:53.404Z,98076.81
2018-03-22T08:41:21.074Z,98079.22
2018-03-22T08:43:48.539Z,98079.73
2018-03-22T08:46:15.980Z,98074.04
2018-03-22T08:48:43.437Z,98069.78
2018-03-22T08:51:10.958Z,98067.27
2018-03-22T08:53:38.440Z,98052.19
2018-03-22T08:56:05.873Z,98050.58
2018-03-22T08:58:33.378Z,98044.80
2018-03-22T09:01:00.806Z,98051.84
2018-03-22T09:03:28.268Z,98040.09
2018-03-22T09:05:55.704Z,98048.04
2018-03-22T09:08:23.135Z,98049.44
2018-03-22T09:10:50.655Z,98045.14
2018-03-22T09:13:18.076Z,98051.58
2018-03-22T09:15:45.698Z,98054.92
2018-03-22T09:18:13.146Z,98060.09
2018-03-22T09:20:41.061Z,98057.63
2018-03-22T09:23:08.669Z,98051.19
2018-03-22T09:25:36.130Z,98033.70
2018-03-22T09:28:03.591Z,98030.37
2018-03-22T09:30:31.187Z,98028.84
2018-03-22T09:32:58.673Z,98020.70
2018-03-22T09:35:26.150Z,98015.92
2018-03-22T09:37:53.638Z,98003.12
2018-03-22T09:40:21.736Z,98002.30
2018-03-22T09:42:49.255Z,98003.58
2018-03-22T09:45:17.027Z,97996.16
2018-03-22T09:47:44.536Z,97990.09
2018-03-22T09:50:12.002Z,97983.80
2018-03-22T09:52:39.416Z,97983.02
2018-03-22T09:55:06.884Z,97976.64
2018-03-22T09:57:34.377Z,97975.77
2018-03-22T10:00:01.858Z,97969.63
2018-03-22T10:02:29.313Z,97971.44
2018-03-22T10:04:56.759Z,97968.03
2018-03-22T10:07:24.189Z,97961.95
2018-03-22T10:09:51.642Z,97965.60
2018-03-22T10:12:19.068Z,97973.84
2018-03-22T10:14:46.556Z,97963.86
2018-03-22T10:17:14.033Z,97968.36
2018-03-22T10:19:41.528Z,97962.05
2018-03-22T10:22:08.964Z,97957.13
2018-03-22T10:24:36.520Z,97951.08
2018-03-22T10:27:04.097Z,97946.56
2018-03-22T10:29:32.915Z,97940.89
2018-03-22T10:32:00.349Z,97934.84
2018-03-22T10:34:27.797Z,97932.11
2018-03-22T10:36:55.255Z,97936.89
2018-03-22T10:39:22.760Z,97925.83
2018-03-22T10:41:50.276Z,97921.28
2018-03-22T10:44:17.754Z,97913.83
2018-03-22T10:46:45.242Z,97912.22
2018-03-22T10:49:12.736Z,97908.28
2018-03-22T10:51:40.168Z,97903.97
2018-03-22T10:54:07.661Z,97901.58
2018-03-22T10:56:35.100Z,97898.86
2018-03-22T10:59:02.910Z,97897.33
2018-03-22T11:01:35.890Z,97890.50
2018-03-22T11:04:07.499Z,97878.84
2018-03-22T11:06:35.228Z,97872.50
2018-03-22T11:09:02.702Z,97869.54
2018-03-22T11:11:30.122Z,97853.41
2018-03-22T11:13:57.584Z,97853.06
2018-03-22T11:16:25.054Z,97852.70
2018-03-22T11:18:52.470Z,97851.78
2018-03-22T11:21:19.935Z,97848.64
2018-03-22T11:23:47.367Z,97842.39
2018-03-22T11:26:14.902Z,97831.73
2018-03-22T11:28:42.328Z,97831.13
2018-03-22T11:31:09.799Z,97815.75
2018-03-22T11:33:37.316Z,97813.00
2018-03-22T11:36:04.765Z,97812.95
2018-03-22T11:38:32.184Z,97814.72
2018-03-22T11:40:59.653Z,97809.20
2018-03-22T11:43:27.076Z,97804.78
2018-03-22T11:45:54.498Z,97805.47
2018-03-22T11:48:21.982Z,97797.80
2018-03-22T11:50:49.534Z,97799.83
2018-03-22T11:53:16.925Z,97797.42
2018-03-22T11:55:44.342Z,97805.28
2018-03-22T11:58:11.800Z,97797.04
2018-03-22T12:00:39.230Z,97791.94
2018-03-22T12:03:06.674Z,97799.70
2018-03-22T12:05:34.088Z,97785.61
2018-03-22T12:08:01.517Z,97793.25
2018-03-22T12:10:28.963Z,97788.20
2018-03-22T12:12:56.384Z,97790.34
2018-03-22T12:15:23.876Z,97781.17
2018-03-22T12:17:51.317Z,97786.39
2018-03-22T12:20:18.908Z,97792.98
2018-03-22T12:22:46.345Z,97787.63
2018-03-22T12:25:13.773Z,97784.67
2018-03-22T12:27:41.321Z,97784.14
2018-03-22T12:30:08.748Z,97782.65
2018-03-22T12:32:36.216Z,97769.23
2018-03-22T12:35:03.645Z,97767.55
2018-03-22T12:37:31.116Z,97769.44
2018-03-22T12:39:58.552Z,97760.84
2018-03-22T12:42:26.013Z,97763.49
2018-03-22T12:44:53.480Z,97763.53
2018-03-22T12:47:20.976Z,97760.56
2018-03-22T12:49:48.401Z,97761.28
2018-03-22T12:52:15.867Z,97759.52
2018-03-22T12:54:43.414Z,97759.41
2018-03-22T12:57:10.900Z,97756.33
2018-03-22T12:59:38.482Z,97756.20
2018-03-22T13:02:05.978Z,97753.63
2018-03-22T13:04:33.399Z,97756.82
2018-03-22T13:07:00.896Z,97755.73
2018-03-22T13:09:28.355Z,97753.05
2018-03-22T13:11:55.950Z,97752.55
2018-03-22T13:14:23.496Z,97748.81
2018-03-22T13:16:51.825Z,97750.26
2018-03-22T13:19:19.475Z,97742.31
2018-03-22T13:21:46.927Z,97740.90
2018-03-22T13:24:14.449Z,97738.83
2018-03-22T13:26:41.889Z,97736.92
2018-03-22T13:29:09.422Z,97733.84
2018-03-22T13:31:37.027Z,97722.92
2018-03-22T13:34:04.748Z,97715.56
2018-03-22T13:36:32.315Z,97714.27
2018-03-22T13:39:00.008Z,97700.80
2018-03-22T13:41:27.635Z,97689.38
2018-03-22T13:43:55.100Z,97685.18
2018-03-22T13:46:22.587Z,97684.10
2018-03-22T13:48:50.043Z,97688.74
2018-03-22T13:51:17.492Z,97696.31
2018-03-22T13:53:45.059Z,97691.81
2018-03-22T13:56:12.515Z,97686.28
2018-03-22T13:58:40.578Z,97695.44
2018-03-22T14:01:08.157Z,97689.30
2018-03-22T14:03:35.705Z,97682.06
2018-03-22T14:06:03.268Z,97682.31
2018-03-22T14:08:30.752Z,97675.28
2018-03-22T14:10:58.194Z,97667.18
2018-03-22T14:13:25.711Z,97667.77
2018-03-22T14:15:53.171Z,97656.81
2018-03-22T14:18:20.638Z,97653.87
2018-03-22T14:20:48.104Z,97647.20
2018-03-22T14:23:15.539Z,97641.02
2018-03-22T14:25:43.184Z,97636.33
2018-03-22T14:28:10.647Z,97633.92
2018-03-22T14:30:38.240Z,97628.97
2018-03-22T14:33:05.707Z,97628.82
2018-03-22T14:35:33.184Z,97627.49
2018-03-22T14:38:00.658Z,97618.76
2018-03-22T14:40:28.467Z,97619.47
2018-03-22T14:42:56.036Z,97620.47
2018-03-22T14:45:23.480Z,97615.61
2018-03-22T14:47:50.959Z,97610.20
2018-03-22T14:50:18.708Z,97598.69
2018-03-22T14:52:46.188Z,97602.41
2018-03-22T14:55:13.628Z,97600.37
2018-03-22T14:57:41.122Z,97596.16
2018-03-22T15:00:09.423Z,97594.61
2018-03-22T15:02:36.869Z,97593.13
2018-03-22T15:05:04.466Z,97588.83
2018-03-22T15:07:31.986Z,97580.88
2018-03-22T15:09:59.593Z,97577.16
2018-03-22T15:12:27.474Z,97568.34
2018-03-22T15:14:54.978Z,97570.25
2018-03-22T15:17:22.496Z,97572.23
2018-03-22T15:19:49.969Z,97568.27
2018-03-22T15:22:17.464Z,97571.48
2018-03-22T15:24:44.934Z,97563.46
2018-03-22T15:27:12.375Z,97561.43
2018-03-22T15:29:39.845Z,97558.88
2018-03-22T15:32:07.298Z,97557.98
2018-03-22T15:34:34.794Z,97556.25
2018-03-22T15:37:02.308Z,97554.61
2018-03-22T15:39:29.793Z,97554.73
2018-03-22T15:41:57.666Z,97558.40
2018-03-22T15:44:25.168Z,97553.45
2018-03-22T15:46:52.657Z,97554.24
2018-03-22T15:49:20.185Z,97555.08
2018-03-22T15:51:47.739Z,97546.24
2018-03-22T15:54:15.273Z,97550.77
2018-03-22T15:56:42.837Z,97553.13
2018-03-22T15:59:10.543Z,97548.84
2018-03-22T16:01:38.120Z,97553.69
2018-03-22T16:04:05.633Z,97546.54
2018-03-22T16:06:33.209Z,97535.39
2018-03-22T16:09:00.671Z,97539.78
2018-03-22T16:11:28.132Z,97544.39
2018-03-22T16:13:55.578Z,97537.09
2018-03-22T16:16:23.034Z,97535.66
2018-03-22T16:18:50.858Z,97531.05
2018-03-22T16:21:18.348Z,97535.88
2018-03-22T16:23:45.782Z,97538.19
2018-03-22T16:26:13.242Z,97539.30
2018-03-22T16:28:41.723Z,97541.81
2018-03-22T16:31:09.299Z,97540.48
2018-03-22T16:33:36.775Z,97538.20
2018-03-22T16:36:04.298Z,97539.09
2018-03-22T16:38:31.794Z,97542.31
2018-03-22T16:40:59.273Z,97542.53
2018-03-22T16:43:26.734Z,97547.16
2018-03-22T16:45:54.192Z,97546.58
2018-03-22T16:48:21.686Z,97551.28
2018-03-22T16:50:49.114Z,97555.92
2018-03-22T16:53:16.586Z,97560.04
2018-03-22T16:55:44.117Z,97561.92
2018-03-22T16:58:11.606Z,97554.34
2018-03-22T17:00:39.239Z,97551.91
2018-03-22T17:03:06.840Z,97556.08
2018-03-22T17:05:34.381Z,97556.17
2018-03-22T17:08:01.909Z,97554.06
2018-03-22T17:10:29.427Z,97562.30
2018-03-22T17:12:57.588Z,97557.01
2018-03-22T17:15:25.217Z,97558.93
2018-03-22T17:17:52.668Z,97560.48
2018-03-22T17:20:20.194Z,97555.37
